sensor_id;sensor_type;location;lat;lon;timestamp;P1;durP1;ratioP1;P2;durP2;ratioP2
2191;SDS011;1102;49.718;11.902;2022-08-21T00:00:06;19.90;;;17.90;;
2191;SDS011;1102;49.718;11.902;2022-08-21T00:02:43;18.93;;;16.97;;
2191;SDS011;1102;49.718;11.902;2022-08-21T00:05:10;23.10;;;20.70;;
2191;SDS011;1102;49.718;11.902;2022-08-21T00:07:36;20.70;;;18.53;;
2191;SDS011;1102;49.718;11.902;2022-08-21T00:10:03;25.70;;;18.30;;
2191;SDS011;1102;49.718;11.902;2022-08-21T00:12:30;18.97;;;16.97;;
2191;SDS011;1102;49.718;11.902;2022-08-21T00:14:57;24.80;;;19.83;;
2191;SDS011;1102;49.718;11.902;2022-08-21T00:17:25;22.97;;;19.70;;
2191;SDS011;1102;49.718;11.902;2022-08-21T00:19:52;20.83;;;18.73;;
2191;SDS011;1102;49.718;11.902;2022-08-21T00:22:18;21.83;;;19.43;;
2191;SDS011;1102;49.718;11.902;2022-08-21T00:24:45;22.57;;;20.17;;
2191;SDS011;1102;49.718;11.902;2022-08-21T00:27:12;22.70;;;19.87;;
2191;SDS011;1102;49.718;11.902;2022-08-21T00:29:41;23.37;;;20.93;;
2191;SDS011;1102;49.718;11.902;2022-08-21T00:32:08;25.20;;;21.50;;
2191;SDS011;1102;49.718;11.902;2022-08-21T00:34:34;23.37;;;20.80;;
2191;SDS011;1102;49.718;11.902;2022-08-21T00:37:01;24.27;;;21.73;;
2191;SDS011;1102;49.718;11.902;2022-08-21T00:39:28;24.23;;;21.37;;
2191;SDS011;1102;49.718;11.902;2022-08-21T00:41:54;24.40;;;21.87;;
2191;SDS011;1102;49.718;11.902;2022-08-21T00:44:21;25.67;;;21.90;;
2191;SDS011;1102;49.718;11.902;2022-08-21T00:46:47;24.77;;;22.17;;
2191;SDS011;1102;49.718;11.902;2022-08-21T00:49:14;23.77;;;21.20;;
2191;SDS011;1102;49.718;11.902;2022-08-21T00:51:42;25.37;;;21.00;;
2191;SDS011;1102;49.718;11.902;2022-08-21T00:54:10;26.60;;;23.80;;
2191;SDS011;1102;49.718;11.902;2022-08-21T00:56:45;26.50;;;22.57;;
2191;SDS011;1102;49.718;11.902;2022-08-21T00:59:13;30.50;;;23.13;;
2191;SDS011;1102;49.718;11.902;2022-08-21T01:01:41;31.63;;;24.43;;
2191;SDS011;1102;49.718;11.902;2022-08-21T01:04:07;31.00;;;26.43;;
2191;SDS011;1102;49.718;11.902;2022-08-21T01:06:34;29.60;;;23.17;;
2191;SDS011;1102;49.718;11.902;2022-08-21T01:09:02;25.90;;;20.90;;
2191;SDS011;1102;49.718;11.902;2022-08-21T01:11:28;29.77;;;24.60;;
2191;SDS011;1102;49.718;11.902;2022-08-21T01:13:55;23.70;;;21.20;;
2191;SDS011;1102;49.718;11.902;2022-08-21T01:16:22;22.63;;;19.97;;
2191;SDS011;1102;49.718;11.902;2022-08-21T01:18:49;25.23;;;21.77;;
2191;SDS011;1102;49.718;11.902;2022-08-21T01:21:18;23.33;;;20.87;;
2191;SDS011;1102;49.718;11.902;2022-08-21T01:23:47;26.23;;;23.17;;
2191;SDS011;1102;49.718;11.902;2022-08-21T01:26:14;22.87;;;19.60;;
2191;SDS011;1102;49.718;11.902;2022-08-21T01:28:44;25.97;;;20.60;;
2191;SDS011;1102;49.718;11.902;2022-08-21T01:31:12;33.10;;;22.47;;
2191;SDS011;1102;49.718;11.902;2022-08-21T01:33:42;28.87;;;23.50;;
2191;SDS011;1102;49.718;11.902;2022-08-21T01:36:08;30.07;;;23.23;;
2191;SDS011;1102;49.718;11.902;2022-08-21T01:38:35;22.83;;;19.73;;
2191;SDS011;1102;49.718;11.902;2022-08-21T01:41:02;31.67;;;21.07;;
2191;SDS011;1102;49.718;11.902;2022-08-21T01:43:28;24.00;;;21.50;;
2191;SDS011;1102;49.718;11.902;2022-08-21T01:46:04;23.80;;;19.77;;
2191;SDS011;1102;49.718;11.902;2022-08-21T01:48:31;22.30;;;19.17;;
2191;SDS011;1102;49.718;11.902;2022-08-21T01:50:58;27.07;;;22.60;;
2191;SDS011;1102;49.718;11.902;2022-08-21T01:53:25;28.90;;;22.50;;
2191;SDS011;1102;49.718;11.902;2022-08-21T01:55:59;28.30;;;23.40;;
2191;SDS011;1102;49.718;11.902;2022-08-21T01:58:25;30.17;;;23.50;;
2191;SDS011;1102;49.718;11.902;2022-08-21T02:00:52;31.43;;;24.53;;
2191;SDS011;1102;49.718;11.902;2022-08-21T02:03:19;29.00;;;23.87;;
2191;SDS011;1102;49.718;11.902;2022-08-21T02:06:02;30.07;;;24.77;;
2191;SDS011;1102;49.718;11.902;2022-08-21T02:08:29;35.90;;;27.90;;
2191;SDS011;1102;49.718;11.902;2022-08-21T02:10:56;31.97;;;27.00;;
2191;SDS011;1102;49.718;11.902;2022-08-21T02:13:22;35.80;;;27.10;;
2191;SDS011;1102;49.718;11.902;2022-08-21T02:15:49;39.37;;;26.90;;
2191;SDS011;1102;49.718;11.902;2022-08-21T02:18:16;34.83;;;26.17;;
2191;SDS011;1102;49.718;11.902;2022-08-21T02:20:44;36.00;;;27.10;;
2191;SDS011;1102;49.718;11.902;2022-08-21T02:23:11;30.90;;;25.60;;
2191;SDS011;1102;49.718;11.902;2022-08-21T02:25:38;27.70;;;22.50;;
2191;SDS011;1102;49.718;11.902;2022-08-21T02:28:06;29.70;;;25.80;;
2191;SDS011;1102;49.718;11.902;2022-08-21T02:30:35;27.90;;;23.37;;
2191;SDS011;1102;49.718;11.902;2022-08-21T02:33:04;29.53;;;26.03;;
2191;SDS011;1102;49.718;11.902;2022-08-21T02:35:31;32.27;;;24.63;;
2191;SDS011;1102;49.718;11.902;2022-08-21T02:37:59;35.17;;;25.70;;
2191;SDS011;1102;49.718;11.902;2022-08-21T02:40:28;32.30;;;24.30;;
2191;SDS011;1102;49.718;11.902;2022-08-21T02:42:57;34.30;;;26.90;;
2191;SDS011;1102;49.718;11.902;2022-08-21T02:45:24;31.70;;;26.30;;
2191;SDS011;1102;49.718;11.902;2022-08-21T02:47:53;32.70;;;26.77;;
2191;SDS011;1102;49.718;11.902;2022-08-21T02:50:22;32.03;;;25.30;;
2191;SDS011;1102;49.718;11.902;2022-08-21T02:52:51;34.17;;;25.87;;
2191;SDS011;1102;49.718;11.902;2022-08-21T02:55:21;37.23;;;25.20;;
2191;SDS011;1102;49.718;11.902;2022-08-21T02:57:48;34.87;;;26.03;;
2191;SDS011;1102;49.718;11.902;2022-08-21T03:00:15;31.87;;;26.17;;
2191;SDS011;1102;49.718;11.902;2022-08-21T03:02:42;33.77;;;27.17;;
2191;SDS011;1102;49.718;11.902;2022-08-21T03:05:09;34.10;;;27.67;;
2191;SDS011;1102;49.718;11.902;2022-08-21T03:07:36;36.20;;;28.07;;
2191;SDS011;1102;49.718;11.902;2022-08-21T03:10:04;34.13;;;27.00;;
2191;SDS011;1102;49.718;11.902;2022-08-21T03:12:30;35.47;;;28.17;;
2191;SDS011;1102;49.718;11.902;2022-08-21T03:14:57;37.40;;;29.07;;
2191;SDS011;1102;49.718;11.902;2022-08-21T03:17:24;38.23;;;27.70;;
2191;SDS011;1102;49.718;11.902;2022-08-21T03:19:55;34.00;;;29.40;;
2191;SDS011;1102;49.718;11.902;2022-08-21T03:22:22;33.07;;;27.70;;
2191;SDS011;1102;49.718;11.902;2022-08-21T03:24:49;32.13;;;27.17;;
2191;SDS011;1102;49.718;11.902;2022-08-21T03:27:17;37.07;;;29.87;;
2191;SDS011;1102;49.718;11.902;2022-08-21T03:29:45;33.60;;;27.87;;
2191;SDS011;1102;49.718;11.902;2022-08-21T03:32:11;30.93;;;26.70;;
2191;SDS011;1102;49.718;11.902;2022-08-21T03:34:38;35.20;;;28.27;;
2191;SDS011;1102;49.718;11.902;2022-08-21T03:37:06;35.07;;;28.83;;
2191;SDS011;1102;49.718;11.902;2022-08-21T03:39:33;32.60;;;29.10;;
2191;SDS011;1102;49.718;11.902;2022-08-21T03:42:00;34.87;;;28.20;;
2191;SDS011;1102;49.718;11.902;2022-08-21T03:44:27;35.60;;;30.67;;
2191;SDS011;1102;49.718;11.902;2022-08-21T03:46:55;34.60;;;28.07;;
2191;SDS011;1102;49.718;11.902;2022-08-21T03:49:23;31.87;;;27.60;;
2191;SDS011;1102;49.718;11.902;2022-08-21T03:51:50;34.47;;;28.70;;
2191;SDS011;1102;49.718;11.902;2022-08-21T03:54:25;37.03;;;30.33;;
2191;SDS011;1102;49.718;11.902;2022-08-21T03:56:54;34.00;;;27.77;;
2191;SDS011;1102;49.718;11.902;2022-08-21T03:59:20;34.10;;;28.40;;
2191;SDS011;1102;49.718;11.902;2022-08-21T04:01:51;39.57;;;29.53;;
2191;SDS011;1102;49.718;11.902;2022-08-21T04:04:17;43.00;;;34.40;;
2191;SDS011;1102;49.718;11.902;2022-08-21T04:06:44;37.73;;;30.30;;
2191;SDS011;1102;49.718;11.902;2022-08-21T04:09:10;37.23;;;28.53;;
2191;SDS011;1102;49.718;11.902;2022-08-21T04:11:37;34.33;;;29.43;;
2191;SDS011;1102;49.718;11.902;2022-08-21T04:14:04;41.47;;;31.77;;
2191;SDS011;1102;49.718;11.902;2022-08-21T04:16:30;32.40;;;28.57;;
2191;SDS011;1102;49.718;11.902;2022-08-21T04:18:57;36.17;;;30.03;;
2191;SDS011;1102;49.718;11.902;2022-08-21T04:21:23;37.43;;;30.53;;
2191;SDS011;1102;49.718;11.902;2022-08-21T04:23:50;37.80;;;31.47;;
2191;SDS011;1102;49.718;11.902;2022-08-21T04:26:17;36.50;;;30.83;;
2191;SDS011;1102;49.718;11.902;2022-08-21T04:28:44;39.43;;;29.27;;
2191;SDS011;1102;49.718;11.902;2022-08-21T04:31:11;35.67;;;31.10;;
2191;SDS011;1102;49.718;11.902;2022-08-21T04:33:37;37.77;;;30.73;;
2191;SDS011;1102;49.718;11.902;2022-08-21T04:36:04;37.10;;;29.93;;
2191;SDS011;1102;49.718;11.902;2022-08-21T04:38:30;38.57;;;31.37;;
2191;SDS011;1102;49.718;11.902;2022-08-21T04:41:03;36.33;;;30.00;;
2191;SDS011;1102;49.718;11.902;2022-08-21T04:43:31;34.50;;;28.40;;
2191;SDS011;1102;49.718;11.902;2022-08-21T04:45:57;33.30;;;28.70;;
2191;SDS011;1102;49.718;11.902;2022-08-21T04:48:24;36.63;;;31.47;;
2191;SDS011;1102;49.718;11.902;2022-08-21T04:50:55;34.40;;;30.67;;
2191;SDS011;1102;49.718;11.902;2022-08-21T04:53:26;31.13;;;27.83;;
2191;SDS011;1102;49.718;11.902;2022-08-21T04:55:54;37.73;;;29.00;;
2191;SDS011;1102;49.718;11.902;2022-08-21T04:58:21;31.20;;;27.80;;
2191;SDS011;1102;49.718;11.902;2022-08-21T05:00:49;36.07;;;30.27;;
2191;SDS011;1102;49.718;11.902;2022-08-21T05:03:17;40.23;;;33.40;;
2191;SDS011;1102;49.718;11.902;2022-08-21T05:05:44;39.87;;;32.80;;
2191;SDS011;1102;49.718;11.902;2022-08-21T05:08:15;41.50;;;32.57;;
2191;SDS011;1102;49.718;11.902;2022-08-21T05:10:44;39.00;;;32.93;;
2191;SDS011;1102;49.718;11.902;2022-08-21T05:13:11;36.97;;;32.67;;
2191;SDS011;1102;49.718;11.902;2022-08-21T05:15:39;39.77;;;32.77;;
2191;SDS011;1102;49.718;11.902;2022-08-21T05:18:06;33.73;;;30.00;;
2191;SDS011;1102;49.718;11.902;2022-08-21T05:20:33;36.50;;;30.80;;
2191;SDS011;1102;49.718;11.902;2022-08-21T05:23:09;34.10;;;30.37;;
2191;SDS011;1102;49.718;11.902;2022-08-21T05:25:36;34.27;;;29.73;;
2191;SDS011;1102;49.718;11.902;2022-08-21T05:28:04;34.10;;;30.37;;
2191;SDS011;1102;49.718;11.902;2022-08-21T05:30:31;37.03;;;30.63;;
2191;SDS011;1102;49.718;11.902;2022-08-21T05:32:59;36.70;;;29.37;;
2191;SDS011;1102;49.718;11.902;2022-08-21T05:35:26;38.70;;;31.97;;
2191;SDS011;1102;49.718;11.902;2022-08-21T05:37:53;36.20;;;29.30;;
2191;SDS011;1102;49.718;11.902;2022-08-21T05:40:20;39.07;;;29.47;;
2191;SDS011;1102;49.718;11.902;2022-08-21T05:42:52;33.03;;;28.33;;
2191;SDS011;1102;49.718;11.902;2022-08-21T05:45:25;32.00;;;28.07;;
2191;SDS011;1102;49.718;11.902;2022-08-21T05:48:15;33.30;;;28.93;;
2191;SDS011;1102;49.718;11.902;2022-08-21T05:50:43;36.13;;;29.70;;
2191;SDS011;1102;49.718;11.902;2022-08-21T05:53:09;34.23;;;28.73;;
2191;SDS011;1102;49.718;11.902;2022-08-21T05:55:37;33.67;;;29.57;;
2191;SDS011;1102;49.718;11.902;2022-08-21T05:58:11;33.30;;;28.17;;
2191;SDS011;1102;49.718;11.902;2022-08-21T06:00:37;31.33;;;27.87;;
2191;SDS011;1102;49.718;11.902;2022-08-21T06:03:04;36.53;;;30.70;;
2191;SDS011;1102;49.718;11.902;2022-08-21T06:05:36;39.57;;;32.70;;
2191;SDS011;1102;49.718;11.902;2022-08-21T06:08:03;35.83;;;31.93;;
2191;SDS011;1102;49.718;11.902;2022-08-21T06:10:30;38.67;;;31.67;;
2191;SDS011;1102;49.718;11.902;2022-08-21T06:12:57;39.57;;;31.47;;
2191;SDS011;1102;49.718;11.902;2022-08-21T06:15:24;33.67;;;29.90;;
2191;SDS011;1102;49.718;11.902;2022-08-21T06:17:51;33.43;;;28.07;;
2191;SDS011;1102;49.718;11.902;2022-08-21T06:20:18;31.77;;;27.47;;
2191;SDS011;1102;49.718;11.902;2022-08-21T06:22:44;31.37;;;27.53;;
2191;SDS011;1102;49.718;11.902;2022-08-21T06:25:11;31.63;;;28.07;;
2191;SDS011;1102;49.718;11.902;2022-08-21T06:27:38;33.90;;;27.70;;
2191;SDS011;1102;49.718;11.902;2022-08-21T06:30:05;29.43;;;25.57;;
2191;SDS011;1102;49.718;11.902;2022-08-21T06:32:31;34.97;;;28.20;;
2191;SDS011;1102;49.718;11.902;2022-08-21T06:34:58;29.57;;;26.33;;
2191;SDS011;1102;49.718;11.902;2022-08-21T06:37:25;30.80;;;27.50;;
2191;SDS011;1102;49.718;11.902;2022-08-21T06:39:51;29.70;;;26.33;;
2191;SDS011;1102;49.718;11.902;2022-08-21T06:42:18;32.60;;;28.70;;
2191;SDS011;1102;49.718;11.902;2022-08-21T06:44:45;32.87;;;28.60;;
2191;SDS011;1102;49.718;11.902;2022-08-21T06:47:11;31.60;;;28.20;;
2191;SDS011;1102;49.718;11.902;2022-08-21T06:49:38;31.57;;;28.23;;
2191;SDS011;1102;49.718;11.902;2022-08-21T06:52:08;30.73;;;27.37;;
2191;SDS011;1102;49.718;11.902;2022-08-21T06:54:35;30.60;;;27.27;;
2191;SDS011;1102;49.718;11.902;2022-08-21T06:57:02;27.80;;;24.57;;
2191;SDS011;1102;49.718;11.902;2022-08-21T06:59:28;27.20;;;24.30;;
2191;SDS011;1102;49.718;11.902;2022-08-21T07:01:55;31.80;;;28.50;;
2191;SDS011;1102;49.718;11.902;2022-08-21T07:04:21;33.30;;;27.10;;
2191;SDS011;1102;49.718;11.902;2022-08-21T07:06:48;28.40;;;25.30;;
2191;SDS011;1102;49.718;11.902;2022-08-21T07:09:15;29.17;;;26.00;;
2191;SDS011;1102;49.718;11.902;2022-08-21T07:11:46;31.17;;;23.93;;
2191;SDS011;1102;49.718;11.902;2022-08-21T07:14:15;28.87;;;25.87;;
2191;SDS011;1102;49.718;11.902;2022-08-21T07:16:46;28.83;;;25.70;;
2191;SDS011;1102;49.718;11.902;2022-08-21T07:19:12;29.40;;;26.40;;
2191;SDS011;1102;49.718;11.902;2022-08-21T07:21:39;28.13;;;25.23;;
2191;SDS011;1102;49.718;11.902;2022-08-21T07:24:06;30.53;;;27.30;;
2191;SDS011;1102;49.718;11.902;2022-08-21T07:26:32;28.20;;;25.20;;
2191;SDS011;1102;49.718;11.902;2022-08-21T07:28:59;30.67;;;25.53;;
2191;SDS011;1102;49.718;11.902;2022-08-21T07:31:26;27.00;;;24.27;;
2191;SDS011;1102;49.718;11.902;2022-08-21T07:33:53;27.70;;;24.53;;
2191;SDS011;1102;49.718;11.902;2022-08-21T07:36:20;28.83;;;25.97;;
2191;SDS011;1102;49.718;11.902;2022-08-21T07:38:46;30.60;;;27.40;;
2191;SDS011;1102;49.718;11.902;2022-08-21T07:41:19;28.47;;;25.47;;
2191;SDS011;1102;49.718;11.902;2022-08-21T07:43:46;29.67;;;26.60;;
2191;SDS011;1102;49.718;11.902;2022-08-21T07:46:13;29.87;;;26.67;;
2191;SDS011;1102;49.718;11.902;2022-08-21T07:48:40;27.60;;;24.70;;
2191;SDS011;1102;49.718;11.902;2022-08-21T07:51:08;28.70;;;25.80;;
2191;SDS011;1102;49.718;11.902;2022-08-21T07:53:35;31.23;;;23.37;;
2191;SDS011;1102;49.718;11.902;2022-08-21T07:56:02;27.47;;;24.77;;
2191;SDS011;1102;49.718;11.902;2022-08-21T07:58:30;27.17;;;24.00;;
2191;SDS011;1102;49.718;11.902;2022-08-21T08:00:58;26.97;;;24.20;;
2191;SDS011;1102;49.718;11.902;2022-08-21T08:03:26;26.73;;;23.73;;
2191;SDS011;1102;49.718;11.902;2022-08-21T08:05:55;22.50;;;20.20;;
2191;SDS011;1102;49.718;11.902;2022-08-21T08:08:21;26.37;;;23.67;;
2191;SDS011;1102;49.718;11.902;2022-08-21T08:10:48;24.23;;;21.80;;
2191;SDS011;1102;49.718;11.902;2022-08-21T08:13:16;26.43;;;23.73;;
2191;SDS011;1102;49.718;11.902;2022-08-21T08:15:42;24.23;;;21.80;;
2191;SDS011;1102;49.718;11.902;2022-08-21T08:18:09;24.23;;;21.50;;
2191;SDS011;1102;49.718;11.902;2022-08-21T08:20:35;21.37;;;19.20;;
2191;SDS011;1102;49.718;11.902;2022-08-21T08:23:02;24.03;;;21.63;;
2191;SDS011;1102;49.718;11.902;2022-08-21T08:25:29;23.53;;;21.23;;
2191;SDS011;1102;49.718;11.902;2022-08-21T08:28:03;24.17;;;22.07;;
2191;SDS011;1102;49.718;11.902;2022-08-21T08:30:43;30.93;;;22.83;;
2191;SDS011;1102;49.718;11.902;2022-08-21T08:33:09;23.10;;;20.90;;
2191;SDS011;1102;49.718;11.902;2022-08-21T08:35:36;24.87;;;22.47;;
2191;SDS011;1102;49.718;11.902;2022-08-21T08:38:04;22.97;;;20.67;;
2191;SDS011;1102;49.718;11.902;2022-08-21T08:40:50;22.57;;;20.40;;
2191;SDS011;1102;49.718;11.902;2022-08-21T08:43:18;22.50;;;19.90;;
2191;SDS011;1102;49.718;11.902;2022-08-21T08:45:46;20.87;;;18.77;;
2191;SDS011;1102;49.718;11.902;2022-08-21T08:48:14;20.43;;;18.33;;
2191;SDS011;1102;49.718;11.902;2022-08-21T08:50:46;21.07;;;19.00;;
2191;SDS011;1102;49.718;11.902;2022-08-21T08:53:15;20.83;;;18.83;;
2191;SDS011;1102;49.718;11.902;2022-08-21T08:55:44;19.50;;;17.70;;
2191;SDS011;1102;49.718;11.902;2022-08-21T08:58:22;22.47;;;20.27;;
2191;SDS011;1102;49.718;11.902;2022-08-21T09:00:49;20.10;;;18.30;;
2191;SDS011;1102;49.718;11.902;2022-08-21T09:03:16;18.17;;;16.37;;
2191;SDS011;1102;49.718;11.902;2022-08-21T09:05:59;20.00;;;18.10;;
2191;SDS011;1102;49.718;11.902;2022-08-21T09:08:31;18.93;;;17.23;;
2191;SDS011;1102;49.718;11.902;2022-08-21T09:11:08;19.80;;;17.87;;
2191;SDS011;1102;49.718;11.902;2022-08-21T09:16:13;20.13;;;18.27;;
2191;SDS011;1102;49.718;11.902;2022-08-21T09:24:07;18.77;;;16.97;;
2191;SDS011;1102;49.718;11.902;2022-08-21T09:27:25;20.13;;;18.17;;
2191;SDS011;1102;49.718;11.902;2022-08-21T09:29:26;19.53;;;17.63;;
2191;SDS011;1102;49.718;11.902;2022-08-21T09:31:55;18.63;;;17.00;;
2191;SDS011;1102;49.718;11.902;2022-08-21T09:34:26;21.00;;;17.63;;
2191;SDS011;1102;49.718;11.902;2022-08-21T09:36:53;17.47;;;15.87;;
2191;SDS011;1102;49.718;11.902;2022-08-21T09:39:27;16.63;;;15.00;;
2191;SDS011;1102;49.718;11.902;2022-08-21T09:41:55;19.80;;;17.80;;
2191;SDS011;1102;49.718;11.902;2022-08-21T09:44:26;17.60;;;15.90;;
2191;SDS011;1102;49.718;11.902;2022-08-21T09:46:53;17.20;;;15.40;;
2191;SDS011;1102;49.718;11.902;2022-08-21T09:49:30;18.40;;;16.60;;
2191;SDS011;1102;49.718;11.902;2022-08-21T09:51:56;16.13;;;14.27;;
2191;SDS011;1102;49.718;11.902;2022-08-21T09:54:32;15.20;;;13.70;;
2191;SDS011;1102;49.718;11.902;2022-08-21T09:57:01;14.30;;;13.00;;
2191;SDS011;1102;49.718;11.902;2022-08-21T09:59:50;16.13;;;14.60;;
2191;SDS011;1102;49.718;11.902;2022-08-21T10:04:43;15.87;;;14.37;;
2191;SDS011;1102;49.718;11.902;2022-08-21T10:07:19;14.93;;;13.40;;
2191;SDS011;1102;49.718;11.902;2022-08-21T10:09:57;15.13;;;13.73;;
2191;SDS011;1102;49.718;11.902;2022-08-21T10:12:26;15.17;;;13.63;;
2191;SDS011;1102;49.718;11.902;2022-08-21T10:15:15;14.83;;;13.37;;
2191;SDS011;1102;49.718;11.902;2022-08-21T10:20:43;12.80;;;11.70;;
2191;SDS011;1102;49.718;11.902;2022-08-21T10:23:29;14.77;;;13.33;;
2191;SDS011;1102;49.718;11.902;2022-08-21T10:26:18;14.07;;;12.70;;
2191;SDS011;1102;49.718;11.902;2022-08-21T10:39:13;12.23;;;11.13;;
2191;SDS011;1102;49.718;11.902;2022-08-21T10:42:17;11.50;;;10.50;;
2191;SDS011;1102;49.718;11.902;2022-08-21T10:44:41;13.40;;;12.23;;
2191;SDS011;1102;49.718;11.902;2022-08-21T10:54:54;11.37;;;10.33;;
2191;SDS011;1102;49.718;11.902;2022-08-21T10:57:33;11.87;;;10.77;;
2191;SDS011;1102;49.718;11.902;2022-08-21T11:00:06;10.03;;;9.13;;
2191;SDS011;1102;49.718;11.902;2022-08-21T11:02:39;11.07;;;10.17;;
2191;SDS011;1102;49.718;11.902;2022-08-21T11:05:21;8.90;;;8.10;;
2191;SDS011;1102;49.718;11.902;2022-08-21T11:07:55;10.50;;;9.70;;
2191;SDS011;1102;49.718;11.902;2022-08-21T11:10:31;9.10;;;8.40;;
2191;SDS011;1102;49.718;11.902;2022-08-21T11:13:01;10.00;;;9.20;;
2191;SDS011;1102;49.718;11.902;2022-08-21T11:18:20;9.10;;;8.37;;
2191;SDS011;1102;49.718;11.902;2022-08-21T11:20:51;8.73;;;7.93;;
2191;SDS011;1102;49.718;11.902;2022-08-21T11:23:25;9.10;;;8.30;;
2191;SDS011;1102;49.718;11.902;2022-08-21T11:25:59;8.97;;;8.27;;
2191;SDS011;1102;49.718;11.902;2022-08-21T11:28:34;8.30;;;7.57;;
2191;SDS011;1102;49.718;11.902;2022-08-21T11:38:35;7.77;;;7.17;;
2191;SDS011;1102;49.718;11.902;2022-08-21T11:43:37;7.50;;;6.90;;
2191;SDS011;1102;49.718;11.902;2022-08-21T11:51:32;7.17;;;6.57;;
2191;SDS011;1102;49.718;11.902;2022-08-21T11:54:05;6.40;;;5.90;;
2191;SDS011;1102;49.718;11.902;2022-08-21T11:56:37;7.20;;;6.70;;
2191;SDS011;1102;49.718;11.902;2022-08-21T11:59:06;7.60;;;7.00;;
2191;SDS011;1102;49.718;11.902;2022-08-21T12:01:36;6.40;;;5.90;;
2191;SDS011;1102;49.718;11.902;2022-08-21T12:04:06;6.97;;;6.33;;
2191;SDS011;1102;49.718;11.902;2022-08-21T12:06:36;7.53;;;6.93;;
2191;SDS011;1102;49.718;11.902;2022-08-21T12:09:04;6.37;;;5.97;;
2191;SDS011;1102;49.718;11.902;2022-08-21T12:11:32;6.03;;;5.53;;
2191;SDS011;1102;49.718;11.902;2022-08-21T12:14:00;6.30;;;5.80;;
2191;SDS011;1102;49.718;11.902;2022-08-21T12:16:40;6.53;;;6.03;;
2191;SDS011;1102;49.718;11.902;2022-08-21T12:21:34;6.70;;;6.20;;
2191;SDS011;1102;49.718;11.902;2022-08-21T12:26:52;6.20;;;5.70;;
2191;SDS011;1102;49.718;11.902;2022-08-21T12:31:53;5.80;;;5.40;;
2191;SDS011;1102;49.718;11.902;2022-08-21T12:34:20;10.63;;;5.87;;
2191;SDS011;1102;49.718;11.902;2022-08-21T12:39:38;5.90;;;5.50;;
2191;SDS011;1102;49.718;11.902;2022-08-21T12:42:06;6.03;;;5.53;;
2191;SDS011;1102;49.718;11.902;2022-08-21T12:44:41;5.63;;;5.23;;
2191;SDS011;1102;49.718;11.902;2022-08-21T12:47:14;5.60;;;5.20;;
2191;SDS011;1102;49.718;11.902;2022-08-21T12:49:53;7.10;;;4.90;;
2191;SDS011;1102;49.718;11.902;2022-08-21T12:52:27;6.33;;;5.77;;
2191;SDS011;1102;49.718;11.902;2022-08-21T12:54:54;5.50;;;5.07;;
2191;SDS011;1102;49.718;11.902;2022-08-21T12:57:28;7.30;;;5.03;;
2191;SDS011;1102;49.718;11.902;2022-08-21T12:59:59;5.20;;;4.80;;
2191;SDS011;1102;49.718;11.902;2022-08-21T13:02:31;5.70;;;5.30;;
2191;SDS011;1102;49.718;11.902;2022-08-21T13:04:58;6.67;;;6.20;;
2191;SDS011;1102;49.718;11.902;2022-08-21T13:07:29;7.53;;;6.93;;
2191;SDS011;1102;49.718;11.902;2022-08-21T13:09:57;7.50;;;6.80;;
2191;SDS011;1102;49.718;11.902;2022-08-21T13:12:25;6.47;;;5.90;;
2191;SDS011;1102;49.718;11.902;2022-08-21T13:14:59;8.90;;;6.50;;
2191;SDS011;1102;49.718;11.902;2022-08-21T13:17:29;6.97;;;6.37;;
2191;SDS011;1102;49.718;11.902;2022-08-21T13:19:58;7.07;;;6.47;;
2191;SDS011;1102;49.718;11.902;2022-08-21T13:22:25;6.77;;;6.27;;
2191;SDS011;1102;49.718;11.902;2022-08-21T13:24:59;6.33;;;5.83;;
2191;SDS011;1102;49.718;11.902;2022-08-21T13:27:32;5.23;;;4.83;;
2191;SDS011;1102;49.718;11.902;2022-08-21T13:30:08;5.33;;;4.90;;
2191;SDS011;1102;49.718;11.902;2022-08-21T13:32:37;5.27;;;4.87;;
2191;SDS011;1102;49.718;11.902;2022-08-21T13:35:09;5.27;;;4.87;;
2191;SDS011;1102;49.718;11.902;2022-08-21T13:37:38;5.53;;;5.13;;
2191;SDS011;1102;49.718;11.902;2022-08-21T13:40:06;4.70;;;4.30;;
2191;SDS011;1102;49.718;11.902;2022-08-21T13:42:33;5.23;;;4.90;;
2191;SDS011;1102;49.718;11.902;2022-08-21T13:45:00;5.00;;;4.70;;
2191;SDS011;1102;49.718;11.902;2022-08-21T13:47:26;5.63;;;5.23;;
2191;SDS011;1102;49.718;11.902;2022-08-21T13:49:53;6.30;;;5.80;;
2191;SDS011;1102;49.718;11.902;2022-08-21T13:52:25;5.97;;;5.47;;
2191;SDS011;1102;49.718;11.902;2022-08-21T13:54:54;5.70;;;5.20;;
2191;SDS011;1102;49.718;11.902;2022-08-21T13:57:26;6.43;;;5.93;;
2191;SDS011;1102;49.718;11.902;2022-08-21T13:59:52;6.60;;;6.10;;
2191;SDS011;1102;49.718;11.902;2022-08-21T14:02:20;7.43;;;6.73;;
2191;SDS011;1102;49.718;11.902;2022-08-21T14:04:56;5.53;;;5.13;;
2191;SDS011;1102;49.718;11.902;2022-08-21T14:07:33;6.73;;;6.23;;
2191;SDS011;1102;49.718;11.902;2022-08-21T14:10:04;6.10;;;5.70;;
2191;SDS011;1102;49.718;11.902;2022-08-21T14:12:35;6.70;;;5.87;;
2191;SDS011;1102;49.718;11.902;2022-08-21T14:15:04;4.90;;;4.50;;
2191;SDS011;1102;49.718;11.902;2022-08-21T14:17:33;5.97;;;5.47;;
2191;SDS011;1102;49.718;11.902;2022-08-21T14:20:00;5.40;;;5.00;;
2191;SDS011;1102;49.718;11.902;2022-08-21T14:22:32;5.03;;;4.73;;
2191;SDS011;1102;49.718;11.902;2022-08-21T14:25:26;5.63;;;4.20;;
2191;SDS011;1102;49.718;11.902;2022-08-21T14:27:55;4.60;;;4.30;;
2191;SDS011;1102;49.718;11.902;2022-08-21T14:30:32;5.23;;;4.83;;
2191;SDS011;1102;49.718;11.902;2022-08-21T14:33:00;5.37;;;4.87;;
2191;SDS011;1102;49.718;11.902;2022-08-21T14:35:27;4.37;;;4.07;;
2191;SDS011;1102;49.718;11.902;2022-08-21T14:37:55;4.97;;;4.60;;
2191;SDS011;1102;49.718;11.902;2022-08-21T14:40:22;5.03;;;4.53;;
2191;SDS011;1102;49.718;11.902;2022-08-21T14:42:50;4.87;;;4.40;;
2191;SDS011;1102;49.718;11.902;2022-08-21T14:45:20;4.23;;;3.93;;
2191;SDS011;1102;49.718;11.902;2022-08-21T14:47:53;4.70;;;4.10;;
2191;SDS011;1102;49.718;11.902;2022-08-21T14:50:20;4.83;;;4.43;;
2191;SDS011;1102;49.718;11.902;2022-08-21T14:52:46;4.53;;;4.23;;
2191;SDS011;1102;49.718;11.902;2022-08-21T14:55:15;4.80;;;4.40;;
2191;SDS011;1102;49.718;11.902;2022-08-21T14:57:43;4.40;;;4.00;;
2191;SDS011;1102;49.718;11.902;2022-08-21T15:00:12;4.90;;;4.50;;
2191;SDS011;1102;49.718;11.902;2022-08-21T15:02:39;4.40;;;4.10;;
2191;SDS011;1102;49.718;11.902;2022-08-21T15:05:05;4.80;;;4.40;;
2191;SDS011;1102;49.718;11.902;2022-08-21T15:07:32;4.40;;;4.10;;
2191;SDS011;1102;49.718;11.902;2022-08-21T15:09:59;4.10;;;3.80;;
2191;SDS011;1102;49.718;11.902;2022-08-21T15:12:25;4.77;;;4.43;;
2191;SDS011;1102;49.718;11.902;2022-08-21T15:14:52;4.53;;;4.23;;
2191;SDS011;1102;49.718;11.902;2022-08-21T15:17:19;5.10;;;4.60;;
2191;SDS011;1102;49.718;11.902;2022-08-21T15:19:45;4.40;;;4.10;;
2191;SDS011;1102;49.718;11.902;2022-08-21T15:22:12;4.43;;;4.10;;
2191;SDS011;1102;49.718;11.902;2022-08-21T15:24:53;5.07;;;4.57;;
2191;SDS011;1102;49.718;11.902;2022-08-21T15:27:19;4.70;;;4.40;;
2191;SDS011;1102;49.718;11.902;2022-08-21T15:29:46;4.63;;;4.20;;
2191;SDS011;1102;49.718;11.902;2022-08-21T15:32:24;4.73;;;4.43;;
2191;SDS011;1102;49.718;11.902;2022-08-21T15:34:51;5.90;;;5.50;;
2191;SDS011;1102;49.718;11.902;2022-08-21T15:37:18;4.20;;;3.90;;
2191;SDS011;1102;49.718;11.902;2022-08-21T15:39:44;4.63;;;4.33;;
2191;SDS011;1102;49.718;11.902;2022-08-21T15:42:19;4.50;;;4.20;;
2191;SDS011;1102;49.718;11.902;2022-08-21T15:44:46;4.50;;;4.20;;
2191;SDS011;1102;49.718;11.902;2022-08-21T15:47:14;4.60;;;4.30;;
2191;SDS011;1102;49.718;11.902;2022-08-21T15:49:41;4.67;;;4.10;;
2191;SDS011;1102;49.718;11.902;2022-08-21T15:52:14;4.33;;;4.07;;
2191;SDS011;1102;49.718;11.902;2022-08-21T15:54:41;4.73;;;4.40;;